Flight Track Log - Related Links

Times and Time Zones

All times are in EDT time to prevent confusion due to time zone crossing. See the N244A flight status page for this flight to view local times or setup timezone preferences in your user account.

Time Position Orientation Groundspeed Altitude Reporting Facility
EDT Latitude Longitude Course Direction KTS MPH feet Rate Location/Type
Tue 09:43:55 AM 39.1167 -84.4000 351° North 177 204 1,400  Level Cincinnati TRACON
Tue 09:45:17 AM 39.2019 -84.4172 351° North 241 277 2,500 2,077 Climbing Indianapolis Center
Tue 09:46:31 AM 39.3017 -84.4289 355° North 355 409 6,800 3,441 Climbing Indianapolis Center
Tue 09:47:33 AM 39.3756 -84.4364 356° North 280 322 10,300 3,000 Climbing Indianapolis Center
Tue 09:48:35 AM 39.4569 -84.4214 North 288 331 13,000 2,129 Climbing Indianapolis Center
Tue 09:49:37 AM 39.5481 -84.4128 North 310 357 14,700 2,081 Climbing Indianapolis Center
Tue 09:50:39 AM 39.6692 -84.4136 360° North 359 413 17,300 2,129 Climbing Indianapolis Center
Tue 09:51:41 AM 39.7697 -84.4072 North 363 418 19,100 1,548 Climbing Indianapolis Center
Tue 09:52:43 AM 39.8839 -84.4017 North 386 444 20,500 1,597 Climbing Indianapolis Center
Tue 09:53:45 AM 39.9886 -84.3981 North 396 456 22,400 2,274 Climbing Indianapolis Center
Tue 09:54:47 AM 40.0956 -84.3978 360° North 388 447 25,200 2,177 Climbing Indianapolis Center
Tue 09:55:49 AM 40.2142 -84.4156 353° North 363 418 26,900 1,258 Climbing Indianapolis Center
Tue 09:56:51 AM 40.3219 -84.4247 356° North 382 440 27,800 1,258 Climbing Indianapolis Center
Tue 09:57:53 AM 40.4319 -84.4322 357° North 395 455 29,500 1,742 Climbing Indianapolis Center
Tue 09:58:55 AM 40.5353 -84.4436 355° North 378 435 31,400 1,355 Climbing Indianapolis Center
Tue 09:59:57 AM 40.6353 -84.4511 357° North 366 421 32,300 774 Climbing Indianapolis Center
Tue 10:00:59 AM 40.7386 -84.4614 356° North 371 427 33,000 1,065 Climbing Indianapolis Center
Tue 10:02:01 AM 40.8592 -84.4731 356° North 365 420 34,500 1,113 Climbing Indianapolis Center
Tue 10:03:03 AM 40.9581 -84.4811 356° North 359 413 35,300 774 Climbing Indianapolis Center
Tue 10:04:05 AM 41.0567 -84.4917 355° North 358 412 36,100 774 Climbing Indianapolis Center
Tue 10:05:07 AM 41.1542 -84.5008 356° North 354 407 36,900 823 Climbing Indianapolis Center
Tue 10:06:09 AM 41.2475 -84.5072 357° North 342 394 37,800 532 Climbing Indianapolis Center
Tue 10:07:11 AM 41.3606 -84.5181 356° North 341 392 38,000 97 Climbing Indianapolis Center
Tue 10:08:13 AM 41.4606 -84.5233 358° North 351 404 38,000  Level Indianapolis Center
Tue 10:09:15 AM 41.5617 -84.4975 11° North 365 420 38,000  Level Indianapolis Center
Tue 10:10:17 AM 41.6631 -84.4600 15° North 373 429 38,000  Level Indianapolis Center
Tue 10:11:19 AM 41.7683 -84.4278 13° North 379 436 38,000  Level Indianapolis Center
Tue 10:12:21 AM 41.8733 -84.4111 North 377 434 38,000  Level Indianapolis Center
Tue 10:13:27 AM 42.0053 -84.3894 North 375 432 38,000  Level Cleveland Center
Tue 10:14:27 AM 42.1064 -84.3589 13° North 375 432 38,000  Level Cleveland Center
Tue 10:15:27 AM 42.1925 -84.3333 12° North 364 419 38,000  Level Cleveland Center
Tue 10:16:27 AM 42.2953 -84.3142 North 364 419 38,000  Level Cleveland Center
Tue 10:17:27 AM 42.3950 -84.3256 355° North 364 419 38,000  Level Cleveland Center
Tue 10:18:27 AM 42.4967 -84.3458 352° North 359 413 38,000  Level Cleveland Center
Tue 10:19:27 AM 42.5964 -84.3575 355° North 359 413 38,000  Level Cleveland Center
Tue 10:20:27 AM 42.7064 -84.3669 356° North 359 413 38,000  Level Cleveland Center
Tue 10:21:27 AM 42.8083 -84.3814 354° North 364 419 38,000 -450 Level Cleveland Center
Tue 10:22:27 AM 42.9119 -84.3964 354° North 370 426 37,100 -800 Descending Cleveland Center
Tue 10:23:27 AM 43.0197 -84.4114 354° North 377 434 36,400 -900 Descending Cleveland Center
Tue 10:24:27 AM 43.1194 -84.4261 354° North 377 434 35,300 -1,241 Descending Cleveland Center
Tue 10:26:50 AM 43.3475 -84.4594 354° North 379 436 32,200 -1,463 Descending Minneapolis Center
Tue 10:27:52 AM 43.4528 -84.4731 355° North 381 438 30,300 -1,984 Descending Minneapolis Center
Tue 10:28:54 AM 43.5808 -84.4939 353° North 386 444 28,100 -1,113 Descending Minneapolis Center
Tue 10:29:56 AM 43.6917 -84.5144 352° North 398 458 28,000 -484 Descending Minneapolis Center
Tue 10:30:58 AM 43.8017 -84.5581 344° North 409 471 27,100 -1,440 Descending Minneapolis Center
Tue 10:32:01 AM 43.9317 -84.6167 342° North 411 473 25,000 -1,645 Descending Minneapolis Center
Tue 10:33:02 AM 44.0308 -84.6514 346° North 412 474 23,700 -1,415 Descending Minneapolis Center
Tue 10:34:04 AM 44.1644 -84.6808 351° North 408 470 22,100 -1,584 Descending Minneapolis Center
Tue 10:35:07 AM 44.2769 -84.7053 351° North 408 470 20,400 -1,440 Descending Minneapolis Center
Tue 10:36:09 AM 44.3867 -84.7428 346° North 407 468 19,100 -1,306 Descending Minneapolis Center
Tue 10:37:11 AM 44.4922 -84.7728 349° North 397 457 17,700 -1,887 Descending Minneapolis Center
Tue 10:38:13 AM 44.6017 -84.7728 360° North 394 453 15,200 -2,806 Descending Minneapolis Center
Tue 10:39:15 AM 44.7297 -84.7722 360° North 389 448 11,900 -2,274 Descending Minneapolis Center
Tue 10:40:17 AM 44.8342 -84.7778 358° North 374 430 10,500 -968 Descending Minneapolis Center
Tue 10:41:19 AM 44.9200 -84.7781 360° North 309 356 9,900 -1,645 Descending Minneapolis Center
Tue 10:42:21 AM 44.9969 -84.7842 357° North 262 302 7,100 -2,468 Descending Minneapolis Center
Tue 10:43:23 AM 45.0681 -84.7847 360° North 260 299 4,800 -1,368 Descending Minneapolis Center
Tue 10:44:37 AM 45.1439 -84.7814 North 256 295 4,000 -350 Descending Minneapolis Center
Tue 10:45:40 AM 45.2283 -84.7253 25° Northeast 272 313 4,000  Level Minneapolis Center
Tue 10:46:42 AM 45.2925 -84.6708 31° Northeast 271 312 4,000 -48 Level Minneapolis Center
Tue 10:47:44 AM 45.3631 -84.6189 27° Northeast 268 308 3,900 -435 Descending Minneapolis Center
Tue 10:48:46 AM 45.4306 -84.5847 20° North 268 308 3,100 -484 Descending Minneapolis Center
Tue 10:49:48 AM 45.4700 -84.6692 304° West 246 283 2,900 -194 Descending Minneapolis Center
Tue 10:51:00 AM 45.5557 -84.7774 North  Level Estimated
Tue 10:58:00 AM 45.5667 -84.7833 North  Level FlightAware Approximate

Login

Don't have an account? Register now (free) for customized features, flight alerts, and more!